Weather History for KPOV - December, 2012

Change the Weather History Date:

Saturday, December 29, 2012

  Actual Average (KCAK) Record (KCAK)
Temperature  
Mean Temperature 28 °F 27 °F  
Max Temperature 32 °F 34 °F 65 °F (1889)
Min Temperature 24 °F 21 °F -5 °F (1961)
Degree Days  
Heating Degree Days 37 38  
Month to date heating degree days 997  
Since 1 July heating degree days 2256  
Cooling Degree Days 0 0  
Month to date cooling degree days 0  
Year to date cooling degree days 652  
Moisture  
Dew Point 26 °F    
Average Humidity 92    
Maximum Humidity 100    
Minimum Humidity 78    
Precipitation  
Precipitation 0.05 in 0.09 in 0.58 in (1984)
Month to date precipitation 2.67  
Year to date precipitation 39.45  
Snow  
Snow 0.00 in 0.30 in - ()
Month to date snowfall 9.4  
Since 1 July snowfall 12.8  
Snow Depth -    
Sea Level Pressure  
Sea Level Pressure 29.78 in    
Wind  
Wind Speed 7 mph (NNW)    
Max Wind Speed 14 mph    
Max Gust Speed 20 mph    
Visibility 6 miles    
Events Snow    
T = Trace of Precipitation, MM = Missing Value Source: NWS Daily Summary

Daily Weather History Graph

Daily Weather History Graph

Search for Another Location

Airport or City:

Trip Planner

Search our weather history database for the weather conditions in past years. The results will help you decide how hot, cold, wet, or windy it might be!

Date:

Astronomy

Dec. 29, 2012 Rise Set
Actual Time 7:50 AM EST 5:04 PM EST
Civil Twilight 7:18 AM EST 5:35 PM EST
Nautical Twilight 6:44 AM EST 6:10 PM EST
Astronomical Twilight 6:10 AM EST 6:44 PM EST
Moon 6:37 PM EST (12/29) 8:21 AM EST (12/29)
Length of Visible Light 10h 16m
Length of Day
9h 14m
Full, 98% of the Moon is Illuminated
Dec 29
Full
Jan 4
Last Quarter
Jan 11
New
Jan 18
First Quarter
Jan 26
Full

Hourly Weather History & Observations

Time (EST) Temp. Windchill Dew Point Humidity Pressure Visibility Wind Dir Wind Speed Gust Speed Precip Events Conditions
12:16 AM 25.9 °F 18.2 °F 20.1 °F 79% 29.88 in 10.0 mi ESE 6.9 mph - N/A   Overcast
12:35 AM 26.1 °F 16.8 °F 20.1 °F 78% 29.84 in 10.0 mi East 9.2 mph - N/A   Overcast
12:55 AM 26.1 °F 17.6 °F 20.1 °F 78% 29.83 in 10.0 mi East 8.1 mph - N/A   Overcast
1:15 AM 25.7 °F 19.0 °F 20.1 °F 79% 29.84 in 10.0 mi East 5.8 mph - N/A   Overcast
1:35 AM 25.7 °F 20.1 °F 20.1 °F 79% 29.84 in 10.0 mi East 4.6 mph - N/A   Overcast
1:56 AM 25.7 °F 21.5 °F 20.1 °F 79% 29.85 in 10.0 mi East 3.5 mph - N/A   Overcast
2:16 AM 25.7 °F 21.5 °F 20.3 °F 80% 29.85 in 10.0 mi NE 3.5 mph - N/A   Overcast
2:35 AM 25.5 °F 21.3 °F 20.3 °F 81% 29.84 in 10.0 mi ENE 3.5 mph - N/A   Overcast
2:55 AM 25.3 °F 18.5 °F 20.3 °F 81% 29.83 in 10.0 mi ENE 5.8 mph - N/A   Overcast
3:16 AM 25.5 °F 18.7 °F 20.7 °F 82% 29.82 in 10.0 mi ENE 5.8 mph - N/A   Overcast
3:35 AM 25.2 °F 16.5 °F 21.2 °F 85% 29.80 in 1.8 mi East 8.1 mph - N/A Snow Light Snow
3:55 AM 24.6 °F 16.7 °F 23.5 °F 96% 29.80 in 1.5 mi East 6.9 mph - N/A Snow Light Snow
4:15 AM 24.8 °F 16.9 °F 24.8 °F 100% 29.77 in 1.2 mi ENE 6.9 mph - N/A Snow Light Snow
4:35 AM 24.8 °F 16.9 °F 24.8 °F 100% 29.75 in 1.2 mi ENE 6.9 mph - N/A Snow Light Snow
4:56 AM 24.8 °F 16.1 °F 25.0 °F 100% 29.72 in 4.0 mi North 8.1 mph - N/A Snow Light Snow
5:15 AM 24.8 °F 16.1 °F 24.8 °F 100% 29.71 in 4.0 mi NE 8.1 mph - N/A Snow Light Snow
5:35 AM 24.8 °F 16.9 °F 24.8 °F 100% 29.70 in 2.0 mi ENE 6.9 mph - N/A Snow Light Snow
5:55 AM 24.8 °F 16.1 °F 25.0 °F 100% 29.69 in 1.8 mi ENE 8.1 mph - N/A Snow Light Snow
6:16 AM 24.8 °F 17.9 °F 24.8 °F 100% 29.70 in 1.5 mi NE 5.8 mph - N/A Snow Light Snow
6:35 AM 24.8 °F 16.9 °F 24.8 °F 100% 29.69 in 2.0 mi NE 6.9 mph - N/A Snow Light Snow
7:15 AM 25.0 °F 18.1 °F 25.2 °F 100% 29.69 in 1.0 mi NE 5.8 mph - N/A Snow Light Snow
7:35 AM 25.2 °F 19.5 °F 25.3 °F 100% 29.70 in 1.0 mi NNE 4.6 mph - N/A Snow Light Snow
7:56 AM 25.2 °F 19.5 °F 25.3 °F 100% 29.69 in 0.8 mi North 4.6 mph - N/A Snow Snow
8:15 AM 25.2 °F 19.5 °F 25.3 °F 100% 29.69 in 1.2 mi North 4.6 mph - N/A Snow Light Snow
8:35 AM 25.3 °F 18.5 °F 25.3 °F 100% 29.69 in 1.5 mi North 5.8 mph - N/A Snow Light Snow
8:56 AM 25.3 °F 21.1 °F 25.3 °F 100% 29.69 in 2.5 mi North 3.5 mph - N/A Snow Light Snow
9:16 AM 25.5 °F 19.9 °F 25.5 °F 100% 29.69 in 1.8 mi North 4.6 mph - N/A Snow Light Snow
9:35 AM 25.7 °F 19.0 °F 25.7 °F 100% 29.69 in 1.0 mi North 5.8 mph - N/A Snow Light Snow
9:55 AM 25.9 °F 21.7 °F 26.1 °F 100% 29.68 in 1.0 mi NNW 3.5 mph - N/A Snow Light Snow
10:16 AM 26.4 °F 20.9 °F 26.4 °F 100% 29.69 in 1.2 mi NW 4.6 mph - N/A Snow Light Snow
10:35 AM 26.8 °F 22.8 °F 26.8 °F 100% 29.69 in 1.2 mi WNW 3.5 mph - N/A Snow Light Snow
10:55 AM 27.9 °F 24.0 °F 27.1 °F 97% 29.69 in 4.0 mi WNW 3.5 mph - N/A Snow Light Snow
11:15 AM 28.8 °F 22.6 °F 27.3 °F 94% 29.69 in 5.0 mi NW 5.8 mph - N/A Snow Light Snow
11:35 AM 29.7 °F 23.7 °F 26.4 °F 88% 29.69 in 7.0 mi NW 5.8 mph - N/A   Overcast
11:55 AM 30.0 °F 24.1 °F 25.7 °F 84% 29.69 in 10.0 mi NW 5.8 mph - 0.01 in   Overcast
12:15 PM 30.9 °F 25.2 °F 25.7 °F 81% 29.68 in 10.0 mi NW 5.8 mph - N/A   Overcast
12:35 PM 31.8 °F 25.4 °F 25.7 °F 78% 29.68 in 10.0 mi NNW 6.9 mph - N/A   Overcast
12:55 PM 32.2 °F 27.7 °F 25.9 °F 78% 29.68 in 10.0 mi NNW 4.6 mph - N/A   Overcast
1:15 PM 31.8 °F 24.6 °F 26.2 °F 80% 29.69 in 10.0 mi WNW 8.1 mph - N/A   Overcast
1:35 PM 32.0 °F 24.8 °F 26.6 °F 80% 29.69 in 10.0 mi NW 8.1 mph - N/A   Overcast
1:55 PM 32.0 °F 25.6 °F 27.1 °F 82% 29.70 in 10.0 mi WNW 6.9 mph - 0.02 in   Overcast
2:15 PM 31.8 °F 23.9 °F 27.5 °F 84% 29.70 in 10.0 mi WNW 9.2 mph - 0.01 in   Overcast
2:35 PM 31.8 °F 23.9 °F 28.0 °F 86% 29.71 in 7.0 mi NW 9.2 mph - 0.01 in   Overcast
2:55 PM 31.6 °F 23.1 °F 28.0 °F 87% 29.72 in 10.0 mi NW 10.4 mph - 0.01 in   Overcast
3:15 PM 31.6 °F 24.4 °F 27.5 °F 85% 29.74 in 10.0 mi NW 8.1 mph - 0.01 in   Overcast
3:35 PM 31.1 °F 23.7 °F 26.4 °F 83% 29.74 in 10.0 mi NW 8.1 mph - 0.01 in   Overcast
3:55 PM 31.1 °F 23.1 °F 26.6 °F 83% 29.76 in 10.0 mi NW 9.2 mph - 0.01 in   Overcast
4:15 PM 30.9 °F 23.5 °F 26.6 °F 84% 29.77 in 10.0 mi NW 8.1 mph - N/A   Overcast
4:35 PM 30.9 °F 24.3 °F 26.6 °F 84% 29.78 in 10.0 mi NW 6.9 mph - N/A   Overcast
4:55 PM 30.7 °F 22.0 °F 26.6 °F 85% 29.79 in 7.0 mi NW 10.4 mph - N/A Snow Light Snow
5:15 PM 30.2 °F 21.9 °F 26.6 °F 86% 29.80 in 10.0 mi NW 9.2 mph - N/A Snow Light Snow
5:35 PM 30.2 °F 21.9 °F 26.6 °F 86% 29.81 in 5.0 mi WNW 9.2 mph - N/A Snow Light Snow
5:55 PM 30.0 °F 22.4 °F 26.6 °F 87% 29.82 in 7.0 mi WNW 8.1 mph - N/A Snow Light Snow
6:16 PM 29.8 °F 21.5 °F 27.1 °F 90% 29.83 in 7.0 mi WNW 9.2 mph 16.1 mph N/A Snow Light Snow
6:35 PM 29.7 °F 22.0 °F 27.3 °F 91% 29.84 in 5.0 mi WNW 8.1 mph - N/A Snow Light Snow
6:55 PM 29.3 °F 20.2 °F 28.2 °F 96% 29.85 in 4.0 mi West 10.4 mph - N/A Snow Light Snow
7:16 PM 29.3 °F 20.8 °F 29.5 °F 100% 29.86 in 3.0 mi WNW 9.2 mph - N/A Snow Light Snow
7:35 PM 29.3 °F 19.6 °F 29.3 °F 100% 29.86 in 4.0 mi West 11.5 mph - N/A Snow Light Snow
7:55 PM 29.3 °F 20.2 °F 29.3 °F 100% 29.86 in 7.0 mi WNW 10.4 mph - N/A Snow Light Snow
8:15 PM 29.3 °F 20.2 °F 29.3 °F 100% 29.87 in 7.0 mi West 10.4 mph - N/A Snow Light Snow
8:35 PM 29.3 °F 19.6 °F 29.3 °F 100% 29.87 in 5.0 mi West 11.5 mph - N/A Snow Light Snow
8:56 PM 29.3 °F 19.6 °F 29.3 °F 100% 29.88 in 4.0 mi West 11.5 mph - N/A Snow Light Snow
9:15 PM 29.3 °F 20.2 °F 29.3 °F 100% 29.89 in 5.0 mi West 10.4 mph 17.3 mph N/A Snow Light Snow
9:35 PM 29.3 °F 20.2 °F 29.3 °F 100% 29.89 in 5.0 mi WNW 10.4 mph - N/A Snow Light Snow
9:55 PM 28.9 °F 18.6 °F 29.1 °F 100% 29.90 in 4.0 mi West 12.7 mph - N/A Snow Light Snow
10:16 PM 28.9 °F 19.2 °F 29.1 °F 100% 29.90 in 5.0 mi West 11.5 mph - N/A Snow Light Snow
10:35 PM 29.1 °F 19.4 °F 29.1 °F 100% 29.91 in 5.0 mi WNW 11.5 mph 18.4 mph N/A Snow Light Snow
10:55 PM 28.9 °F 18.6 °F 28.8 °F 99% 29.92 in 5.0 mi WNW 12.7 mph 18.4 mph N/A Snow Light Snow
11:15 PM 28.9 °F 19.8 °F 28.4 °F 98% 29.93 in 5.0 mi WNW 10.4 mph - N/A Snow Light Snow
11:35 PM 28.8 °F 19.0 °F 28.8 °F 100% 29.94 in 3.0 mi West 11.5 mph 17.3 mph N/A Snow Light Snow
11:56 PM 28.8 °F 17.9 °F 28.4 °F 99% 29.95 in 3.0 mi WNW 13.8 mph 19.6 mph N/A Snow Light Snow